createdAt,value
2022-11-16T00:00:04.445Z,9.07
2022-11-16T00:02:33.282Z,13.60
2022-11-16T00:05:00.951Z,8.80
2022-11-16T00:07:28.617Z,10.63
2022-11-16T00:09:56.072Z,7.27
2022-11-16T00:12:23.530Z,8.47
2022-11-16T00:17:18.368Z,11.77
2022-11-16T00:19:45.952Z,8.13
2022-11-16T00:22:13.807Z,8.57
2022-11-16T00:24:41.480Z,13.10
2022-11-16T00:27:08.904Z,8.00
2022-11-16T00:29:36.346Z,12.67
2022-11-16T00:32:03.917Z,9.40
2022-11-16T00:34:31.831Z,10.00
2022-11-16T00:36:59.525Z,10.17
2022-11-16T00:39:26.965Z,8.73
2022-11-16T00:41:54.376Z,13.50
2022-11-16T00:44:21.791Z,8.80
2022-11-16T02:07:19.217Z,17.90
2022-11-16T02:10:14.256Z,12.73
2022-11-16T02:13:17.006Z,11.30
2022-11-16T02:15:56.604Z,15.83
2022-11-16T02:18:42.127Z,12.17
2022-11-16T02:21:24.244Z,13.67
2022-11-16T02:24:16.376Z,14.47
2022-11-16T02:27:05.094Z,19.57
2022-11-16T02:29:42.261Z,18.60
2022-11-16T02:32:17.952Z,14.87
2022-11-16T02:34:53.496Z,8.67
2022-11-16T02:37:22.744Z,11.47
2022-11-16T02:39:57.169Z,9.83
2022-11-16T02:45:06.339Z,10.30
2022-11-16T02:47:35.512Z,14.53
2022-11-16T02:50:08.240Z,16.47
2022-11-16T02:52:36.796Z,15.07
2022-11-16T02:55:04.435Z,10.23
2022-11-16T02:57:45.258Z,11.77
2022-11-16T03:00:18.061Z,8.87
2022-11-16T03:03:31.884Z,10.03
2022-11-16T03:06:05.900Z,11.83
2022-11-16T03:08:40.604Z,8.60
2022-11-16T03:11:28.264Z,10.70
2022-11-16T03:13:58.470Z,7.30
2022-11-16T03:43:34.602Z,14.30
2022-11-16T03:46:02.323Z,22.53
2022-11-16T03:48:37.187Z,16.13
2022-11-16T03:51:05.341Z,15.63
2022-11-16T03:53:32.850Z,12.03
2022-11-16T03:56:00.236Z,13.13
2022-11-16T03:58:27.809Z,17.57
2022-11-16T04:00:55.494Z,13.13
2022-11-16T04:03:22.931Z,16.23
2022-11-16T04:06:08.561Z,17.00
2022-11-16T04:08:54.325Z,14.80
2022-11-16T04:11:41.546Z,13.97
2022-11-16T04:14:33.226Z,16.07
2022-11-16T04:20:06.702Z,12.73
2022-11-16T04:22:58.704Z,17.50
2022-11-16T04:25:28.556Z,13.13
2022-11-16T04:28:14.358Z,15.30
2022-11-16T04:31:05.033Z,10.70
2022-11-16T04:33:51.351Z,11.97
2022-11-16T04:36:37.627Z,11.27
2022-11-16T04:39:05.896Z,13.37
2022-11-16T04:41:52.726Z,6.03
2022-11-16T04:44:22.111Z,7.47
2022-11-16T04:47:06.870Z,9.93
2022-11-16T04:49:34.639Z,10.17
2022-11-16T04:52:02.075Z,12.00
2022-11-16T05:09:07.755Z,9.47
2022-11-16T05:11:35.203Z,13.93
2022-11-16T05:14:03.228Z,4.10
2022-11-16T05:16:31.284Z,7.13
2022-11-16T05:19:16.995Z,8.87
2022-11-16T05:21:44.452Z,7.40
2022-11-16T05:24:30.690Z,6.53
2022-11-16T05:26:58.123Z,8.17
2022-11-16T05:29:25.569Z,5.17
2022-11-16T05:31:53.892Z,7.40
2022-11-16T05:34:21.279Z,8.67
2022-11-16T05:36:48.670Z,7.90
2022-11-16T05:39:16.387Z,10.53
2022-11-16T05:56:32.548Z,17.03
2022-11-16T05:59:00.076Z,18.10
2022-11-16T06:01:27.528Z,17.10
2022-11-16T06:03:55.738Z,18.33
2022-11-16T06:06:23.272Z,16.60
2022-11-16T06:08:50.721Z,15.33
2022-11-16T06:11:18.167Z,14.10
2022-11-16T06:13:45.764Z,18.13
2022-11-16T06:16:13.508Z,13.07
2022-11-16T06:18:43.047Z,9.70
2022-11-16T06:21:11.523Z,21.67
2022-11-16T06:23:39.102Z,12.47
2022-11-16T06:28:35.329Z,16.93
2022-11-16T06:31:03.347Z,13.50
2022-11-16T06:33:33.565Z,17.83
2022-11-16T06:36:01.247Z,13.57
2022-11-16T06:38:28.724Z,16.40
2022-11-16T06:40:59.727Z,16.57
2022-11-16T06:43:27.555Z,12.77
2022-11-16T06:45:56.911Z,11.27
2022-11-16T06:48:24.362Z,16.20
2022-11-16T06:50:52.642Z,15.77
2022-11-16T06:53:24.623Z,16.57
2022-11-16T06:58:22.566Z,15.83
2022-11-16T07:00:51.188Z,13.20
2022-11-16T07:03:18.582Z,16.93
2022-11-16T07:05:45.971Z,19.80
2022-11-16T07:08:13.565Z,17.30
2022-11-16T07:10:40.980Z,19.87
2022-11-16T07:13:08.579Z,14.90
2022-11-16T07:15:36.017Z,16.00
2022-11-16T07:18:05.087Z,21.30
2022-11-16T07:20:33.077Z,18.20
2022-11-16T07:23:01.801Z,18.87
2022-11-16T07:25:29.625Z,16.23
2022-11-16T07:42:46.549Z,20.90
2022-11-16T07:45:13.967Z,23.50
2022-11-16T07:47:41.536Z,21.97
2022-11-16T07:50:09.239Z,21.97
2022-11-16T07:52:36.666Z,17.87
2022-11-16T07:55:06.184Z,16.50
2022-11-16T07:57:33.776Z,13.83
2022-11-16T08:00:01.289Z,21.33
2022-11-16T08:02:28.704Z,12.87
2022-11-16T08:04:56.103Z,19.37
2022-11-16T08:07:23.752Z,20.63
2022-11-16T08:09:51.247Z,14.20
2022-11-16T08:15:06.859Z,19.03
2022-11-16T08:17:34.293Z,20.47
2022-11-16T08:20:02.000Z,15.57
2022-11-16T08:22:29.558Z,22.53
2022-11-16T08:24:57.150Z,18.30
2022-11-16T08:27:24.744Z,17.73
2022-11-16T08:29:52.177Z,20.80
2022-11-16T08:32:19.596Z,18.37
2022-11-16T08:34:46.992Z,14.37
2022-11-16T08:37:14.564Z,21.83
2022-11-16T08:39:42.173Z,23.87
2022-11-16T08:42:09.564Z,21.77
2022-11-16T08:44:36.843Z,17.17
2022-11-16T08:47:04.286Z,20.50
2022-11-16T08:49:31.644Z,25.90
2022-11-16T08:51:59.205Z,21.97
2022-11-16T08:54:29.545Z,20.60
2022-11-16T08:56:56.929Z,21.13
2022-11-16T08:59:24.545Z,14.23
2022-11-16T09:01:52.048Z,27.53
2022-11-16T09:05:12.257Z,18.20
2022-11-16T09:07:40.371Z,22.70
2022-11-16T09:10:08.496Z,18.53
2022-11-16T09:12:36.273Z,20.60
2022-11-16T09:15:04.906Z,17.73
2022-11-16T09:32:06.000Z,57.77
2022-11-16T09:34:36.927Z,94.80
2022-11-16T09:37:04.592Z,74.77
2022-11-16T09:39:32.893Z,45.63
2022-11-16T09:42:08.991Z,45.20
2022-11-16T09:44:48.452Z,26.00
2022-11-16T09:47:23.139Z,41.80
2022-11-16T09:50:00.005Z,33.83
2022-11-16T09:52:44.018Z,36.90
2022-11-16T09:55:25.150Z,50.07
2022-11-16T09:57:56.815Z,48.47
2022-11-16T10:00:24.416Z,72.93
2022-11-16T10:03:13.680Z,57.53
2022-11-16T10:21:13.925Z,22.17
2022-11-16T10:24:25.952Z,15.67
2022-11-16T10:27:24.217Z,24.57
2022-11-16T10:29:57.157Z,18.47
2022-11-16T10:32:34.036Z,17.13
2022-11-16T10:35:09.993Z,12.90
2022-11-16T10:37:42.213Z,24.00
2022-11-16T10:40:18.290Z,16.30
2022-11-16T10:42:48.440Z,14.37
2022-11-16T10:45:22.591Z,8.30
2022-11-16T10:47:59.462Z,12.33
2022-11-16T13:22:59.170Z,11.37
2022-11-16T13:25:34.161Z,15.40
2022-11-16T13:28:50.028Z,15.33
2022-11-16T13:31:26.091Z,13.73
2022-11-16T13:33:58.791Z,13.60
2022-11-16T13:36:39.948Z,12.93
2022-11-16T13:39:08.145Z,13.93
2022-11-16T13:41:37.482Z,13.53
2022-11-16T13:44:11.243Z,15.13
2022-11-16T13:46:56.587Z,13.07
2022-11-16T13:49:37.206Z,18.10
2022-11-16T13:52:46.880Z,11.37
2022-11-16T13:55:01.814Z,20.17
2022-11-16T13:57:35.096Z,15.73
2022-11-16T14:00:02.324Z,14.87
2022-11-16T14:02:32.191Z,19.47
2022-11-16T14:05:01.411Z,12.80
2022-11-16T14:07:36.863Z,16.93
2022-11-16T14:10:05.903Z,15.90
2022-11-16T14:12:38.629Z,23.67
2022-11-16T14:15:17.732Z,13.50
2022-11-16T14:17:59.312Z,20.33
2022-11-16T14:20:38.508Z,19.43
2022-11-16T14:23:17.089Z,16.07
2022-11-16T14:26:02.676Z,22.80
2022-11-16T14:29:00.087Z,18.67
2022-11-16T14:31:30.776Z,23.00
2022-11-16T14:33:59.530Z,18.30
2022-11-16T14:36:37.582Z,23.33
2022-11-16T14:39:16.419Z,24.67
2022-11-16T14:41:46.920Z,19.37
2022-11-16T14:44:18.779Z,19.97
2022-11-16T14:46:46.199Z,26.20
2022-11-16T14:49:16.258Z,22.10
2022-11-16T14:51:46.105Z,25.50
2022-11-16T14:54:24.885Z,23.13
2022-11-16T14:57:03.358Z,24.83
2022-11-16T14:59:31.387Z,22.30
2022-11-16T15:02:02.776Z,22.63
2022-11-16T15:04:30.486Z,19.17
2022-11-16T15:06:59.731Z,20.93
2022-11-16T15:09:29.646Z,20.63
2022-11-16T15:12:16.455Z,27.77
2022-11-16T15:14:48.099Z,21.33
2022-11-16T15:17:20.769Z,21.13
2022-11-16T15:19:55.539Z,26.73
2022-11-16T15:22:23.247Z,29.90
2022-11-16T15:24:57.669Z,27.33
2022-11-16T15:27:43.080Z,30.80
2022-11-16T15:30:21.633Z,21.97
2022-11-16T15:32:50.061Z,20.87
2022-11-16T15:35:25.371Z,23.03
2022-11-16T15:38:24.470Z,20.83
2022-11-16T15:40:54.247Z,14.63
2022-11-16T15:43:24.634Z,23.93
2022-11-16T15:45:51.982Z,19.87
2022-11-16T15:48:25.930Z,20.00
2022-11-16T15:51:06.474Z,29.27
2022-11-16T15:53:47.725Z,34.27
2022-11-16T15:56:25.340Z,24.33
2022-11-16T15:58:57.240Z,34.67
2022-11-16T16:01:25.053Z,36.87
2022-11-16T16:03:55.413Z,38.67
2022-11-16T16:06:46.993Z,29.33
2022-11-16T16:09:20.164Z,45.63
2022-11-16T16:11:47.252Z,40.60
2022-11-16T16:14:23.632Z,44.00
2022-11-16T16:16:53.218Z,43.07
2022-11-16T16:19:43.773Z,35.00
2022-11-16T16:22:23.703Z,42.90
2022-11-16T16:24:51.466Z,37.67
2022-11-16T16:27:23.658Z,35.77
2022-11-16T16:29:52.203Z,33.97
2022-11-16T16:32:32.915Z,33.77
2022-11-16T16:35:05.000Z,33.07
2022-11-16T16:37:33.247Z,32.97
2022-11-16T16:40:00.485Z,34.73
2022-11-16T16:42:27.939Z,29.07
2022-11-16T16:44:54.768Z,32.57
2022-11-16T16:47:21.671Z,37.07
2022-11-16T16:49:49.480Z,33.70
2022-11-16T16:52:16.510Z,30.07
2022-11-16T16:54:43.572Z,29.50
2022-11-16T16:57:15.696Z,30.00
2022-11-16T16:59:45.484Z,34.90
2022-11-16T17:02:13.155Z,27.73
2022-11-16T17:04:44.302Z,33.90
